Time;durP1;ratioP1;P1;durP2;ratioP2;P2;SDS_P1;SDS_P2;PMS_P1;PMS_P2;Temp;Humidity;BMP_temperature;BMP_pressure;BME280_temperature;BME280_humidity;BME280_pressure;Samples;Min_cycle;Max_cycle;Signal;HPM_P1;HPM_P2
2022/10/05 00:02:22;;;;;;;9.88;6.35;;;19.90;90.90;;;;;;6338928;22;20321;-82
2022/10/05 00:04:52;;;;;;;8.32;6.43;;;19.90;90.90;;;;;;6338100;22;20002;-81
2022/10/05 00:07:20;;;;;;;9.15;6.63;;;19.90;90.90;;;;;;6338879;22;20022;-82
2022/10/05 00:09:55;;;;;;;11.95;6.40;;;19.90;90.90;;;;;;6338577;22;19999;-81
2022/10/05 00:12:22;;;;;;;10.07;6.47;;;19.90;90.80;;;;;;6338853;22;20010;-81
2022/10/05 00:14:50;;;;;;;8.82;6.28;;;19.90;90.80;;;;;;6338997;22;19999;-82
2022/10/05 00:17:20;;;;;;;10.60;7.60;;;19.90;90.80;;;;;;6339162;22;20044;-81
2022/10/05 00:19:50;;;;;;;12.07;7.35;;;19.90;90.60;;;;;;6339130;22;20052;-82
2022/10/05 00:22:36;;;;;;;10.40;7.55;;;19.90;90.40;;;;;;6338614;22;20026;-82
2022/10/05 00:25:12;;;;;;;11.13;7.60;;;19.90;90.40;;;;;;6337898;22;19998;-82
2022/10/05 00:27:38;;;;;;;11.63;7.50;;;19.90;90.40;;;;;;6311066;22;20462;-81
2022/10/05 00:30:31;;;;;;;12.90;7.10;;;19.90;90.30;;;;;;6338486;22;19994;-81
2022/10/05 00:32:58;;;;;;;8.05;5.85;;;19.90;90.20;;;;;;6336743;22;20359;-81
2022/10/05 00:35:24;;;;;;;7.38;5.50;;;19.90;90.10;;;;;;6337966;22;20324;-81
2022/10/05 00:37:54;;;;;;;9.10;6.18;;;19.90;89.90;;;;;;6338301;22;20383;-82
2022/10/05 00:40:32;;;;;;;6.15;5.00;;;19.80;89.10;;;;;;6338491;22;20007;-82
2022/10/05 00:43:16;;;;;;;8.57;5.70;;;19.80;89.50;;;;;;6338560;22;20326;-81
2022/10/05 00:45:55;;;;;;;9.68;5.43;;;19.80;88.80;;;;;;6338379;22;20022;-83
2022/10/05 00:48:28;;;;;;;7.07;5.10;;;19.80;88.70;;;;;;6339284;22;20069;-83
2022/10/05 00:51:05;;;;;;;8.68;5.60;;;19.80;88.50;;;;;;6338760;22;20290;-83
2022/10/05 00:53:46;;;;;;;6.32;4.93;;;19.70;87.80;;;;;;6337566;22;19995;-83
2022/10/05 00:56:50;;;;;;;10.35;6.30;;;19.70;88.40;;;;;;6310978;22;20436;-82
2022/10/05 00:59:38;;;;;;;6.88;5.85;;;19.60;88.10;;;;;;6335196;22;21067;-82
2022/10/05 01:02:39;;;;;;;5.90;4.75;;;19.50;88.10;;;;;;6338989;22;20052;-83
2022/10/05 01:05:31;;;;;;;6.03;4.85;;;19.40;88.80;;;;;;6309685;22;20022;-82
2022/10/05 01:08:30;;;;;;;7.45;5.43;;;19.50;89.10;;;;;;6337485;22;20003;-82
2022/10/05 01:11:21;;;;;;;5.97;4.67;;;19.50;89.20;;;;;;6337600;22;20348;-81
2022/10/05 01:14:12;;;;;;;7.90;5.38;;;19.50;88.80;;;;;;6338075;22;20010;-81
2022/10/05 01:16:50;;;;;;;6.22;4.70;;;19.50;88.60;;;;;;6311277;22;20348;-83
2022/10/05 01:19:42;;;;;;;9.23;5.60;;;19.50;88.50;;;;;;6338409;22;20298;-83
2022/10/05 01:22:32;;;;;;;9.77;6.40;;;19.50;88.30;;;;;;6309898;22;20028;-84
2022/10/05 01:25:29;;;;;;;6.13;5.03;;;19.50;88.20;;;;;;6337304;22;20044;-83
2022/10/05 01:28:14;;;;;;;7.97;5.65;;;19.50;88.30;;;;;;6338053;22;20002;-83
2022/10/05 01:30:48;;;;;;;7.15;5.30;;;19.50;88.30;;;;;;6338028;22;20029;-83
2022/10/05 01:33:39;;;;;;;6.25;4.70;;;19.40;88.40;;;;;;6338721;22;20003;-81
2022/10/05 01:36:17;;;;;;;8.65;6.43;;;19.40;88.60;;;;;;6338632;22;20056;-81
2022/10/05 01:39:01;;;;;;;9.05;5.63;;;19.40;88.60;;;;;;6338743;22;20030;-81
2022/10/05 01:41:56;;;;;;;8.50;5.63;;;19.40;88.70;;;;;;6309715;22;20041;-81
2022/10/05 01:45:03;;;;;;;6.25;4.95;;;19.40;88.70;;;;;;6338551;22;20009;-81
2022/10/05 01:47:43;;;;;;;9.23;5.70;;;19.40;88.80;;;;;;6337777;22;19995;-82
2022/10/05 01:50:40;;;;;;;7.20;5.90;;;19.40;88.90;;;;;;6338736;22;19998;-82
2022/10/05 01:53:44;;;;;;;6.97;5.22;;;19.40;88.90;;;;;;6331109;22;20010;-81
2022/10/05 01:56:42;;;;;;;9.25;5.63;;;19.40;88.90;;;;;;6337592;22;20072;-82
2022/10/05 01:59:30;;;;;;;10.20;5.70;;;19.40;89.10;;;;;;6324153;22;20009;-81
2022/10/05 02:02:13;;;;;;;6.00;5.40;;;19.40;89.10;;;;;;6338667;22;20477;-82
2022/10/05 02:04:53;;;;;;;7.72;5.60;;;19.40;89.20;;;;;;6338511;22;20007;-83
2022/10/05 02:07:42;;;;;;;7.22;5.50;;;19.40;89.20;;;;;;6338160;22;19999;-82
2022/10/05 02:10:44;;;;;;;7.10;5.50;;;19.40;89.20;;;;;;6337352;22;20002;-81
2022/10/05 02:13:17;;;;;;;9.02;5.85;;;19.40;89.30;;;;;;6312067;22;20397;-82
2022/10/05 02:16:14;;;;;;;7.07;6.07;;;19.40;89.30;;;;;;6338556;22;19999;-82
2022/10/05 02:18:47;;;;;;;7.85;5.70;;;19.40;89.30;;;;;;6336940;22;20026;-82
2022/10/05 02:21:13;;;;;;;7.90;5.40;;;19.40;89.40;;;;;;6338411;22;20478;-83
2022/10/05 02:23:41;;;;;;;6.47;5.63;;;19.40;89.50;;;;;;6337975;22;20304;-82
2022/10/05 02:26:10;;;;;;;8.63;5.28;;;19.40;89.40;;;;;;6338342;22;19995;-81
2022/10/05 02:28:41;;;;;;;7.43;5.97;;;19.40;89.50;;;;;;6337932;22;20002;-81
2022/10/05 02:31:17;;;;;;;8.75;5.75;;;19.50;89.60;;;;;;6338501;22;20297;-84
2022/10/05 02:33:42;;;;;;;9.88;6.07;;;19.50;89.60;;;;;;6336870;22;19999;-82
2022/10/05 02:36:28;;;;;;;10.75;6.78;;;19.50;89.70;;;;;;6338225;22;20006;-84
2022/10/05 02:39:42;;;;;;;8.35;6.05;;;19.50;89.70;;;;;;6310664;22;20017;-83
2022/10/05 02:42:17;;;;;;;11.15;6.70;;;19.50;89.70;;;;;;6337392;22;20002;-83
2022/10/05 02:44:55;;;;;;;9.18;6.35;;;19.30;90.00;;;;;;6338228;22;20022;-80
2022/10/05 02:47:32;;;;;;;9.30;6.95;;;19.10;90.20;;;;;;6337395;22;20025;-82
2022/10/05 02:50:01;;;;;;;6.20;5.60;;;19.10;90.30;;;;;;6337923;22;20003;-82
2022/10/05 02:52:45;;;;;;;8.00;5.60;;;19.00;90.30;;;;;;6337947;22;20075;-81
2022/10/05 02:55:22;;;;;;;7.82;5.75;;;19.10;90.40;;;;;;6337721;22;19995;-82
2022/10/05 02:58:10;;;;;;;8.15;5.15;;;19.00;90.50;;;;;;6337464;22;19999;-82
2022/10/05 03:00:49;;;;;;;6.90;5.65;;;19.10;90.50;;;;;;6338153;22;19995;-82
2022/10/05 03:03:36;;;;;;;7.85;6.47;;;19.10;90.40;;;;;;6337064;22;20026;-83
2022/10/05 03:06:06;;;;;;;9.40;6.47;;;19.10;90.40;;;;;;6338162;22;19999;-84
2022/10/05 03:08:35;;;;;;;;;;;19.10;90.50;;;;;;6338325;22;19995;-83
2022/10/05 03:11:09;;;;;;;7.45;5.40;;;19.10;90.50;;;;;;6337807;22;19898;-83
2022/10/05 03:13:38;;;;;;;8.38;5.28;;;19.10;90.40;;;;;;6337320;22;19999;-83
2022/10/05 03:16:22;;;;;;;8.45;5.55;;;19.10;90.40;;;;;;6337772;22;20003;-81
2022/10/05 03:18:57;;;;;;;6.80;4.90;;;19.10;90.40;;;;;;6338229;22;20034;-82
2022/10/05 03:21:50;;;;;;;8.73;5.70;;;19.10;90.50;;;;;;6338703;22;20068;-81
2022/10/05 03:24:34;;;;;;;9.13;5.45;;;19.10;90.50;;;;;;6339152;22;20022;-82
2022/10/05 03:27:43;;;;;;;7.32;5.70;;;19.20;90.50;;;;;;6339641;22;19995;-82
2022/10/05 03:30:18;;;;;;;8.25;5.45;;;19.10;90.70;;;;;;6304987;22;19999;-82
2022/10/05 03:33:13;;;;;;;7.50;5.32;;;19.10;90.60;;;;;;6339264;22;20417;-82
2022/10/05 03:36:06;;;;;;;9.18;7.28;;;19.00;90.70;;;;;;6339357;22;20306;-81
2022/10/05 03:38:50;;;;;;;10.82;5.82;;;18.90;91.00;;;;;;6339951;22;20026;-81
2022/10/05 03:41:28;;;;;;;9.57;6.38;;;18.70;91.30;;;;;;6338157;22;20003;-82
2022/10/05 03:44:14;;;;;;;8.48;5.38;;;18.70;91.20;;;;;;6339579;22;20324;-83
2022/10/05 03:46:58;;;;;;;8.88;7.00;;;18.70;91.20;;;;;;6327879;22;20069;-83
2022/10/05 03:49:45;;;;;;;7.97;6.28;;;18.70;91.40;;;;;;6338714;22;20037;-83
2022/10/05 03:52:26;;;;;;;10.02;5.95;;;18.60;91.60;;;;;;6338356;22;19995;-82
2022/10/05 03:55:20;;;;;;;9.13;5.85;;;18.60;91.70;;;;;;6339771;22;20026;-82
2022/10/05 03:57:47;;;;;;;11.45;5.20;;;18.50;91.70;;;;;;6339470;22;20048;-83
2022/10/05 04:00:21;;;;;;;6.47;4.43;;;18.40;91.80;;;;;;6339161;22;20002;-82
2022/10/05 04:02:54;;;;;;;7.00;5.15;;;18.40;91.70;;;;;;6338895;22;20017;-83
2022/10/05 04:05:35;;;;;;;6.32;4.63;;;18.40;91.90;;;;;;6338714;22;19999;-82
2022/10/05 04:08:11;;;;;;;8.73;4.85;;;18.40;91.80;;;;;;6311981;22;20086;-83
2022/10/05 04:11:10;;;;;;;7.60;4.78;;;18.40;91.90;;;;;;6339263;22;20013;-83
2022/10/05 04:13:42;;;;;;;6.10;4.32;;;18.40;91.80;;;;;;6324868;22;20375;-83
2022/10/05 04:16:13;;;;;;;8.77;5.10;;;18.40;91.60;;;;;;6338724;22;19999;-83
2022/10/05 04:18:55;;;;;;;7.45;4.88;;;18.50;91.70;;;;;;6339739;22;20053;-83
2022/10/05 04:21:25;;;;;;;4.97;4.00;;;18.40;91.80;;;;;;6311293;22;20002;-83
2022/10/05 04:23:59;;;;;;;8.50;3.90;;;18.40;91.70;;;;;;6339603;22;20429;-83
2022/10/05 04:26:36;;;;;;;6.35;4.88;;;18.40;91.70;;;;;;6339133;22;19999;-83
2022/10/05 04:29:23;;;;;;;7.53;4.75;;;18.50;91.70;;;;;;6339547;22;19995;-83
2022/10/05 04:32:01;;;;;;;10.93;4.35;;;18.50;91.70;;;;;;6339218;22;20575;-84
2022/10/05 04:34:45;;;;;;;9.20;4.82;;;18.50;91.60;;;;;;6339015;22;20324;-84
2022/10/05 04:37:41;;;;;;;5.90;4.97;;;18.50;91.60;;;;;;6338272;22;20003;-84
2022/10/05 04:40:33;;;;;;;7.93;4.53;;;18.40;91.70;;;;;;6337618;22;20006;-85
2022/10/05 04:43:14;;;;;;;6.53;4.47;;;18.50;91.60;;;;;;6338968;22;20002;-84
2022/10/05 04:45:39;;;;;;;;;;;18.50;91.60;;;;;;6339376;22;20018;-83
2022/10/05 04:48:26;;;;;;;8.48;4.38;;;18.60;91.50;;;;;;6338990;22;19906;-84
2022/10/05 04:51:21;;;;;;;5.85;4.10;;;18.60;91.40;;;;;;6338042;22;20048;-83
2022/10/05 04:54:16;;;;;;;4.88;4.38;;;18.60;91.40;;;;;;6339238;22;19999;-82
2022/10/05 04:56:53;;;;;;;9.00;4.22;;;18.70;91.30;;;;;;6309794;22;20469;-84
2022/10/05 04:59:46;;;;;;;5.40;4.10;;;18.60;91.20;;;;;;6339257;22;20002;-82
2022/10/05 05:02:16;;;;;;;5.80;3.75;;;18.60;91.20;;;;;;6338675;22;20003;-83
2022/10/05 05:04:51;;;;;;;;;;;18.70;91.20;;;;;;6276652;22;20114;-83
2022/10/05 05:07:31;;;;;;;5.55;3.83;;;18.70;91.10;;;;;;6276564;22;20004;-83
2022/10/05 05:10:18;;;;;;;5.03;3.50;;;18.70;91.10;;;;;;6277121;22;20075;-81
2022/10/05 05:13:02;;;;;;;4.30;3.60;;;18.80;91.10;;;;;;6276101;22;20082;-81
2022/10/05 05:15:34;;;;;;;6.90;4.10;;;18.80;91.10;;;;;;6276118;22;20031;-82
2022/10/05 05:18:08;;;;;;;6.40;3.97;;;18.80;91.10;;;;;;6276016;22;20034;-82
2022/10/05 05:20:45;;;;;;;7.05;4.10;;;18.80;91.10;;;;;;6276354;22;20000;-82
2022/10/05 05:23:43;;;;;;;8.27;4.00;;;18.80;91.00;;;;;;6276214;22;20295;-84
2022/10/05 05:26:50;;;;;;;4.80;3.83;;;18.90;90.90;;;;;;6276200;22;20000;-86
2022/10/05 05:29:37;;;;;;;5.95;4.15;;;18.80;90.90;;;;;;6275112;22;19996;-84
2022/10/05 05:32:31;;;;;;;6.78;3.55;;;18.80;91.20;;;;;;6272442;22;20355;-84
2022/10/05 05:35:21;;;;;;;4.00;3.35;;;18.80;90.90;;;;;;6275577;22;20045;-83
2022/10/05 05:38:05;;;;;;;7.10;3.75;;;18.80;91.20;;;;;;6274660;22;20049;-80
2022/10/05 05:40:55;;;;;;;8.93;4.45;;;18.80;91.00;;;;;;6275370;22;19996;-81
2022/10/05 05:43:32;;;;;;;5.53;4.05;;;18.80;91.00;;;;;;6264048;22;20425;-82
2022/10/05 05:46:09;;;;;;;5.90;3.38;;;18.70;91.00;;;;;;6276037;22;20023;-84
2022/10/05 05:48:45;;;;;;;4.95;3.88;;;18.70;91.10;;;;;;6274685;22;20000;-83
2022/10/05 05:51:16;;;;;;;8.10;3.97;;;18.80;91.20;;;;;;6249037;22;20310;-81
2022/10/05 05:54:14;;;;;;;7.38;4.05;;;18.80;91.20;;;;;;6274198;22;20027;-81
2022/10/05 05:56:50;;;;;;;6.00;3.22;;;18.90;91.30;;;;;;6240299;22;20008;-79
2022/10/05 05:59:24;;;;;;;8.88;3.85;;;18.90;91.20;;;;;;6276459;22;20261;-79
2022/10/05 06:01:55;;;;;;;5.22;3.42;;;18.90;91.20;;;;;;6275301;22;20003;-78
2022/10/05 06:04:44;;;;;;;4.50;3.15;;;18.90;91.30;;;;;;6328662;22;20302;-80
2022/10/05 06:07:17;;;;;;;5.87;3.07;;;19.00;91.40;;;;;;6337194;22;20325;-81
2022/10/05 06:09:53;;;;;;;6.10;3.35;;;19.00;91.10;;;;;;6337738;22;20003;-82
2022/10/05 06:12:24;;;;;;;4.15;3.10;;;19.10;90.90;;;;;;6337826;22;20005;-83
2022/10/05 06:15:12;;;;;;;5.00;3.58;;;19.00;90.90;;;;;;6337956;22;19999;-81
2022/10/05 06:17:49;;;;;;;7.22;3.55;;;19.00;91.00;;;;;;6336880;22;20007;-82
2022/10/05 06:20:44;;;;;;;6.05;3.47;;;19.00;90.90;;;;;;6319586;22;20312;-80
2022/10/05 06:23:17;;;;;;;4.10;3.30;;;19.00;90.90;;;;;;6333834;22;20579;-80
2022/10/05 06:25:49;;;;;;;4.05;2.97;;;19.00;91.00;;;;;;6333742;22;20336;-81
2022/10/05 06:28:15;;;;;;;4.20;3.25;;;19.00;91.10;;;;;;6333858;22;19999;-81
2022/10/05 06:30:41;;;;;;;7.88;3.50;;;19.00;91.10;;;;;;6335808;22;20021;-83
2022/10/05 06:33:15;;;;;;;5.85;4.05;;;19.00;91.10;;;;;;6298675;22;20010;-82
2022/10/05 06:36:11;;;;;;;4.97;3.30;;;19.10;91.00;;;;;;6336120;22;20034;-77
2022/10/05 06:39:12;;;;;;;4.88;3.00;;;19.10;91.00;;;;;;6307483;22;19999;-78
2022/10/05 06:41:59;;;;;;;3.30;3.00;;;19.10;91.00;;;;;;6328516;22;20078;-78
2022/10/05 06:44:35;;;;;;;4.93;3.20;;;19.10;91.00;;;;;;6337480;22;19998;-78
2022/10/05 06:47:35;;;;;;;4.93;3.65;;;19.10;90.90;;;;;;6337623;22;20410;-85
2022/10/05 06:50:00;;;;;;;7.72;4.00;;;19.10;90.90;;;;;;6338135;22;19994;-84
2022/10/05 06:52:37;;;;;;;6.70;3.95;;;19.10;90.90;;;;;;6335536;22;19995;-79
2022/10/05 06:55:27;;;;;;;7.10;3.65;;;19.10;90.80;;;;;;6307954;22;20368;-79
2022/10/05 06:58:04;;;;;;;;;;;19.10;90.90;;;;;;6339033;22;20081;-82
2022/10/05 07:00:53;;;;;;;6.45;3.80;;;19.10;90.90;;;;;;6338172;22;19902;-82
2022/10/05 07:03:56;;;;;;;7.93;4.63;;;19.20;90.90;;;;;;6309298;22;20015;-83
2022/10/05 07:06:34;;;;;;;5.65;3.65;;;19.20;90.80;;;;;;6339106;22;19999;-84
2022/10/05 07:09:13;;;;;;;7.53;3.67;;;19.20;91.00;;;;;;6340012;22;19999;-82
2022/10/05 07:11:53;;;;;;;4.40;3.65;;;19.20;91.00;;;;;;6338996;22;19998;-83
2022/10/05 07:15:01;;;;;;;8.25;3.67;;;19.20;90.90;;;;;;6336643;22;20024;-82
2022/10/05 07:17:45;;;;;;;5.78;3.33;;;19.30;90.90;;;;;;6273369;22;20087;-81
2022/10/05 07:20:19;;;;;;;8.75;4.13;;;19.30;91.00;;;;;;6333164;22;20428;-82
2022/10/05 07:23:22;;;;;;;5.47;4.25;;;19.40;91.00;;;;;;6311647;22;20052;-82
2022/10/05 07:25:49;;;;;;;4.13;3.00;;;19.50;90.90;;;;;;6338986;22;19999;-82
2022/10/05 07:28:22;;;;;;;5.38;3.83;;;19.50;90.80;;;;;;6337787;22;20062;-82
2022/10/05 07:31:19;;;;;;;8.45;3.45;;;19.50;90.80;;;;;;6339045;22;20065;-81
2022/10/05 07:34:03;;;;;;;7.60;3.70;;;19.60;90.70;;;;;;6283271;22;20006;-81
2022/10/05 07:39:50;;;;;;;303.45;217.52;;;19.60;90.70;;;;;;6340693;22;20038;-82
2022/10/05 07:42:40;;;;;;;44.88;32.50;;;19.70;90.80;;;;;;6339353;22;20006;-80
2022/10/05 07:45:32;;;;;;;11.38;8.68;;;19.80;90.80;;;;;;6312365;22;20422;-83
2022/10/05 07:48:07;;;;;;;6.38;5.10;;;19.80;90.60;;;;;;6338543;22;20471;-82
2022/10/05 07:50:57;;;;;;;6.32;4.78;;;19.80;90.60;;;;;;6339300;22;20002;-81
2022/10/05 07:53:27;;;;;;;;;;;19.90;90.60;;;;;;6339891;22;20002;-81
2022/10/05 07:56:05;;;;;;;7.93;4.38;;;19.90;90.60;;;;;;6343367;22;19899;-81
2022/10/05 07:58:41;;;;;;;6.38;4.05;;;19.90;90.50;;;;;;6342134;22;20003;-81
2022/10/05 08:01:10;;;;;;;5.90;4.35;;;19.90;90.50;;;;;;6342172;22;20052;-81
2022/10/05 08:03:57;;;;;;;8.82;4.90;;;19.90;90.40;;;;;;6316017;22;20072;-80
2022/10/05 08:06:41;;;;;;;9.23;4.60;;;20.00;90.50;;;;;;6342748;22;19999;-79
2022/10/05 08:09:28;;;;;;;7.90;4.53;;;20.00;90.50;;;;;;6346457;22;19995;-81
2022/10/05 08:12:03;;;;;;;7.55;5.00;;;20.00;90.60;;;;;;6348242;22;20419;-80
2022/10/05 08:14:47;;;;;;;8.75;4.45;;;20.10;90.50;;;;;;6353789;22;20009;-80
2022/10/05 08:17:32;;;;;;;5.68;4.43;;;20.10;90.40;;;;;;6355617;22;20006;-80
2022/10/05 08:20:17;;;;;;;8.48;4.78;;;20.20;90.50;;;;;;6317694;22;20003;-81
2022/10/05 08:22:48;;;;;;;7.30;4.68;;;20.30;90.50;;;;;;6339527;22;20010;-83
2022/10/05 08:25:25;;;;;;;8.00;5.18;;;20.40;90.40;;;;;;6338505;22;20187;-80
2022/10/05 08:28:09;;;;;;;6.70;5.05;;;20.40;90.30;;;;;;6337054;22;20010;-80
2022/10/05 08:31:14;;;;;;;6.13;4.22;;;20.50;90.20;;;;;;6336363;22;20051;-80
2022/10/05 08:33:51;;;;;;;6.90;4.88;;;20.50;90.20;;;;;;6335220;22;20017;-82
2022/10/05 08:36:27;;;;;;;6.90;3.92;;;20.50;90.10;;;;;;6312305;22;20065;-80
2022/10/05 08:38:58;;;;;;;7.40;4.47;;;20.50;90.10;;;;;;6337861;22;20003;-80
2022/10/05 08:41:51;;;;;;;;;;;20.60;90.10;;;;;;6338318;22;20279;-82
2022/10/05 08:44:54;;;;;;;7.20;5.10;;;20.70;90.00;;;;;;6337259;22;19990;-83
2022/10/05 08:47:37;;;;;;;5.20;3.88;;;20.70;90.00;;;;;;6338642;22;20010;-81
2022/10/05 08:50:12;;;;;;;7.20;4.03;;;20.70;90.00;;;;;;6338434;22;20070;-82
2022/10/05 08:53:11;;;;;;;5.63;4.32;;;20.80;90.00;;;;;;6339353;22;20024;-82
2022/10/05 08:56:08;;;;;;;12.57;4.82;;;20.80;90.00;;;;;;6338972;22;20049;-83
2022/10/05 08:59:15;;;;;;;9.35;5.03;;;20.80;90.00;;;;;;6311526;22;20317;-83
2022/10/05 09:02:08;;;;;;;6.43;4.45;;;20.70;89.80;;;;;;6317244;22;20136;-84
2022/10/05 09:05:11;;;;;;;7.47;4.80;;;20.70;90.00;;;;;;6338482;22;20042;-83
2022/10/05 09:08:16;;;;;;;11.45;5.22;;;20.70;90.10;;;;;;6339215;22;20025;-82
2022/10/05 09:10:59;;;;;;;6.45;4.40;;;20.70;90.10;;;;;;6279267;22;20431;-83
2022/10/05 09:13:56;;;;;;;6.93;4.20;;;20.80;90.20;;;;;;6338860;22;20003;-83
2022/10/05 09:16:40;;;;;;;6.80;4.32;;;20.80;90.10;;;;;;6338514;22;20010;-83
2022/10/05 09:19:47;;;;;;;9.55;4.65;;;20.90;90.10;;;;;;6338440;22;20439;-83
2022/10/05 09:22:14;;;;;;;5.90;4.40;;;21.00;90.10;;;;;;6339748;22;20120;-84
2022/10/05 09:24:50;;;;;;;7.78;4.80;;;21.00;90.10;;;;;;6338366;22;20009;-82
2022/10/05 09:27:18;;;;;;;6.57;4.28;;;21.10;90.00;;;;;;6338277;22;19999;-82
2022/10/05 09:30:10;;;;;;;14.63;5.30;;;21.10;89.80;;;;;;6338799;22;20022;-84
2022/10/05 09:33:06;;;;;;;7.47;4.50;;;21.10;89.80;;;;;;6309651;22;20030;-84
2022/10/05 09:36:00;;;;;;;6.22;4.00;;;21.10;89.70;;;;;;6338190;22;19999;-82
2022/10/05 09:39:14;;;;;;;12.05;5.20;;;21.10;89.80;;;;;;6338214;22;19995;-83
2022/10/05 09:42:04;;;;;;;7.80;4.20;;;21.10;89.80;;;;;;6281319;22;20450;-82
2022/10/05 09:44:48;;;;;;;7.30;4.00;;;21.10;89.80;;;;;;6338831;22;20007;-83
2022/10/05 09:47:36;;;;;;;6.55;3.97;;;21.20;89.80;;;;;;6339233;22;19995;-83
2022/10/05 09:50:13;;;;;;;9.93;4.55;;;21.20;89.80;;;;;;6339093;22;19998;-83
2022/10/05 09:52:58;;;;;;;8.55;4.35;;;21.40;89.70;;;;;;6338427;22;20417;-83
2022/10/05 09:55:49;;;;;;;9.73;4.97;;;21.40;89.30;;;;;;6310702;22;20007;-82
2022/10/05 09:58:33;;;;;;;;;;;21.50;89.10;;;;;;6339004;22;19999;-81
2022/10/05 10:01:02;;;;;;;7.68;4.53;;;21.50;88.90;;;;;;6338721;22;19929;-83
2022/10/05 10:03:53;;;;;;;8.60;3.77;;;21.50;89.00;;;;;;6338032;22;20042;-83
2022/10/05 10:06:23;;;;;;;6.80;3.65;;;21.60;89.00;;;;;;6338196;22;20436;-83
2022/10/05 10:09:08;;;;;;;5.57;4.03;;;21.70;88.90;;;;;;6337657;22;20063;-83
2022/10/05 10:12:12;;;;;;;4.88;3.30;;;21.70;88.70;;;;;;6338269;22;20326;-84
2022/10/05 10:14:55;;;;;;;5.60;3.35;;;21.80;88.60;;;;;;6337964;22;20003;-84
2022/10/05 10:17:41;;;;;;;4.45;3.58;;;21.90;88.60;;;;;;6338754;22;20019;-83
2022/10/05 10:20:18;;;;;;;5.65;3.63;;;22.00;88.40;;;;;;6337893;22;20060;-83
2022/10/05 10:23:08;;;;;;;7.60;3.90;;;22.10;88.20;;;;;;6337278;22;20025;-83
2022/10/05 10:26:10;;;;;;;6.72;3.20;;;22.10;87.90;;;;;;6337473;22;20006;-83
2022/10/05 10:28:56;;;;;;;4.70;3.63;;;22.20;87.90;;;;;;6338237;22;20002;-81
2022/10/05 10:31:40;;;;;;;4.65;3.10;;;22.20;87.70;;;;;;6337824;22;20079;-82
2022/10/05 10:34:17;;;;;;;5.10;3.55;;;22.30;87.70;;;;;;6338439;22;20005;-87
2022/10/05 10:37:18;;;;;;;6.22;3.70;;;22.40;87.50;;;;;;6337982;22;20007;-86
2022/10/05 10:40:13;;;;;;;15.02;3.20;;;22.50;87.40;;;;;;6309975;22;20055;-86
2022/10/05 10:43:04;;;;;;;5.15;2.90;;;22.50;87.30;;;;;;6337854;22;19999;-84
2022/10/05 10:45:42;;;;;;;4.80;3.03;;;22.50;87.30;;;;;;6310117;22;20396;-81
2022/10/05 10:48:14;;;;;;;4.95;3.28;;;22.60;87.30;;;;;;6309917;22;19998;-82
2022/10/05 10:50:57;;;;;;;4.13;2.38;;;22.70;87.10;;;;;;6337131;22;19995;-82
2022/10/05 10:54:03;;;;;;;4.93;2.38;;;22.70;87.00;;;;;;6337370;22;20059;-81
2022/10/05 10:56:46;;;;;;;7.45;2.40;;;22.70;87.00;;;;;;6336404;22;20010;-80
2022/10/05 10:59:40;;;;;;;4.35;2.10;;;22.70;87.00;;;;;;6336387;22;20022;-81
2022/10/05 11:02:32;;;;;;;5.88;2.58;;;22.80;87.00;;;;;;6308764;22;20007;-85
2022/10/05 11:05:31;;;;;;;4.47;2.50;;;22.80;87.00;;;;;;6338682;22;20014;-84
2022/10/05 11:08:24;;;;;;;4.83;1.87;;;22.90;87.20;;;;;;6310908;22;20014;-86
2022/10/05 11:11:23;;;;;;;3.35;1.70;;;22.90;86.10;;;;;;6338417;22;20009;-85
2022/10/05 11:14:22;;;;;;;3.92;1.40;;;22.90;85.90;;;;;;6310263;22;20037;-85
2022/10/05 11:17:32;;;;;;;1.88;1.30;;;23.00;85.30;;;;;;6338894;22;20010;-86
2022/10/05 11:20:24;;;;;;;1.88;1.02;;;23.00;84.90;;;;;;6338571;22;20003;-82
2022/10/05 11:23:26;;;;;;;2.17;1.13;;;23.10;85.00;;;;;;6328353;22;20014;-82
2022/10/05 11:26:08;;;;;;;2.25;0.93;;;23.10;84.40;;;;;;6336703;22;20003;-83
2022/10/05 11:28:39;;;;;;;2.63;1.23;;;23.20;84.30;;;;;;6337661;22;20031;-81
2022/10/05 11:31:23;;;;;;;2.55;1.40;;;23.30;84.00;;;;;;6309267;22;20010;-82
2022/10/05 11:34:25;;;;;;;3.83;1.50;;;23.30;83.60;;;;;;6337702;22;20009;-82
2022/10/05 11:36:59;;;;;;;3.97;1.17;;;23.40;83.50;;;;;;6335015;22;20056;-82
2022/10/05 11:39:36;;;;;;;3.35;1.52;;;23.40;83.70;;;;;;6336483;22;20443;-83
2022/10/05 11:42:20;;;;;;;3.08;1.58;;;23.40;83.60;;;;;;6338012;22;20333;-82
2022/10/05 11:45:01;;;;;;;3.17;1.23;;;23.50;83.50;;;;;;6337897;22;20065;-82
2022/10/05 11:47:33;;;;;;;3.60;1.52;;;23.50;83.50;;;;;;6337813;22;20052;-82
2022/10/05 11:50:10;;;;;;;3.47;1.40;;;23.60;83.40;;;;;;6309629;22;20022;-83
2022/10/05 11:52:44;;;;;;;2.95;1.30;;;23.60;82.70;;;;;;6337861;22;20375;-81
2022/10/05 11:55:16;;;;;;;2.85;1.00;;;23.70;82.40;;;;;;6338482;22;20070;-83
2022/10/05 11:57:50;;;;;;;3.85;1.27;;;23.70;81.60;;;;;;6337964;22;19999;-82
2022/10/05 12:00:20;;;;;;;3.28;1.17;;;23.80;81.30;;;;;;6338094;22;20298;-82
2022/10/05 12:02:55;;;;;;;1.13;0.82;;;23.80;80.90;;;;;;6337528;22;20132;-82
2022/10/05 12:05:47;;;;;;;1.92;1.00;;;23.80;80.50;;;;;;6338393;22;19995;-83
2022/10/05 12:08:31;;;;;;;3.60;1.20;;;23.80;80.20;;;;;;6337654;22;20080;-85
2022/10/05 12:11:12;;;;;;;7.18;2.38;;;23.90;80.00;;;;;;6338767;22;20002;-86
2022/10/05 12:14:13;;;;;;;4.47;2.35;;;23.90;80.00;;;;;;6310598;22;20030;-86
2022/10/05 12:16:45;;;;;;;2.35;1.55;;;24.00;80.00;;;;;;6302149;22;20027;-84
2022/10/05 12:19:28;;;;;;;3.53;1.60;;;24.10;79.80;;;;;;6337916;22;20007;-83
2022/10/05 12:22:23;;;;;;;2.25;1.50;;;24.10;79.20;;;;;;6309507;22;20003;-84
2022/10/05 12:25:18;;;;;;;3.58;1.20;;;24.20;79.00;;;;;;6336089;22;20014;-83
2022/10/05 12:27:51;;;;;;;3.28;1.10;;;24.30;79.30;;;;;;6338262;22;20003;-86
2022/10/05 12:30:42;;;;;;;2.47;1.17;;;24.30;79.30;;;;;;6311252;22;20599;-88
2022/10/05 12:33:19;;;;;;;2.05;0.98;;;24.30;79.20;;;;;;6338360;22;20024;-89
2022/10/05 12:35:54;;;;;;;3.78;0.95;;;24.40;79.30;;;;;;6311137;22;20031;-85
2022/10/05 12:39:06;;;;;;;2.97;0.90;;;24.30;78.40;;;;;;6337805;22;20007;-84
2022/10/05 12:41:46;;;;;;;3.60;1.60;;;24.30;78.50;;;;;;6331746;22;19999;-83
2022/10/05 12:44:33;;;;;;;1.10;0.70;;;24.30;77.80;;;;;;6337823;22;20003;-84
2022/10/05 12:47:10;;;;;;;3.10;1.33;;;24.30;78.70;;;;;;6338248;22;20119;-86
2022/10/05 12:49:55;;;;;;;2.67;1.10;;;24.20;78.90;;;;;;6338304;22;19999;-85
2022/10/05 12:52:42;;;;;;;4.15;0.90;;;24.30;79.30;;;;;;6310028;22;20006;-87
2022/10/05 12:55:25;;;;;;;1.17;0.77;;;24.40;78.80;;;;;;6337045;22;20002;-87
2022/10/05 12:58:15;;;;;;;3.20;1.00;;;24.40;78.50;;;;;;6337978;22;20082;-87
2022/10/05 13:00:52;;;;;;;3.47;0.73;;;24.40;78.60;;;;;;6339259;22;20006;-86
2022/10/05 13:03:33;;;;;;;3.20;0.70;;;24.30;78.70;;;;;;6310379;22;20015;-85
2022/10/05 13:06:34;;;;;;;3.88;0.98;;;24.30;78.50;;;;;;6310644;22;20441;-84
2022/10/05 13:09:07;;;;;;;2.58;0.88;;;24.30;78.50;;;;;;6247014;22;20000;-85
2022/10/05 13:11:50;;;;;;;2.78;0.85;;;24.10;78.20;;;;;;6327257;22;20496;-86
2022/10/05 13:14:41;;;;;;;1.85;0.85;;;24.10;78.40;;;;;;6338398;22;20003;-85
2022/10/05 13:17:38;;;;;;;1.73;0.80;;;24.10;78.70;;;;;;6337731;22;20025;-86
2022/10/05 13:20:17;;;;;;;1.25;0.80;;;24.00;78.80;;;;;;6337377;22;20026;-84
2022/10/05 13:22:47;;;;;;;2.63;1.02;;;24.00;78.30;;;;;;6338272;22;20028;-85
2022/10/05 13:25:12;;;;;;;2.10;0.98;;;23.90;78.50;;;;;;6338046;22;19995;-86
2022/10/05 13:27:55;;;;;;;3.55;1.08;;;23.90;78.80;;;;;;6338048;22;20074;-85
2022/10/05 13:30:21;;;;;;;1.55;0.68;;;23.80;79.40;;;;;;6337831;22;20006;-85
2022/10/05 13:32:52;;;;;;;1.45;0.65;;;23.80;79.50;;;;;;6337975;22;19999;-85
2022/10/05 13:35:45;;;;;;;7.18;0.93;;;23.80;79.90;;;;;;6337532;22;19999;-85
2022/10/05 13:38:26;;;;;;;1.80;0.90;;;23.70;80.20;;;;;;6337423;22;20002;-85
2022/10/05 13:41:29;;;;;;;2.88;0.70;;;23.70;80.60;;;;;;6334011;22;20495;-84
2022/10/05 13:44:04;;;;;;;3.53;0.93;;;23.70;80.50;;;;;;6335034;22;20010;-85
2022/10/05 13:46:47;;;;;;;4.93;1.00;;;23.70;80.00;;;;;;6335950;22;20067;-86
2022/10/05 13:49:28;;;;;;;1.85;0.75;;;23.70;79.90;;;;;;6334928;22;20492;-85
2022/10/05 13:52:08;;;;;;;2.45;1.00;;;23.70;79.20;;;;;;6333943;22;20377;-85
2022/10/05 13:54:53;;;;;;;1.83;0.57;;;23.70;79.50;;;;;;6334712;22;20013;-84
2022/10/05 13:58:04;;;;;;;2.33;1.10;;;23.70;79.50;;;;;;6306946;22;20027;-85
2022/10/05 14:00:39;;;;;;;2.97;0.63;;;23.70;79.10;;;;;;6305837;22;20652;-85
2022/10/05 14:03:33;;;;;;;1.90;0.68;;;23.80;79.70;;;;;;6334106;22;20011;-85
2022/10/05 14:06:02;;;;;;;3.13;0.90;;;23.80;79.70;;;;;;6306800;22;20003;-84
2022/10/05 14:08:32;;;;;;;0.90;0.60;;;23.80;79.90;;;;;;6333786;22;20439;-85
2022/10/05 14:10:58;;;;;;;1.50;0.75;;;23.70;79.80;;;;;;6333874;22;20059;-85
2022/10/05 14:13:43;;;;;;;1.73;0.60;;;23.70;80.00;;;;;;6333661;22;20026;-85
2022/10/05 14:16:12;;;;;;;3.53;1.05;;;23.70;80.10;;;;;;6334396;22;20005;-86